sensor_id;sensor_type;location;lat;lon;timestamp;temperature;humidity
23755;DHT22;12057;52.042;6.830;2022-10-17T00:00:11;13.80;99.90
23755;DHT22;12057;52.042;6.830;2022-10-17T00:05:11;13.80;99.90
23755;DHT22;12057;52.042;6.830;2022-10-17T00:10:12;13.90;99.90
23755;DHT22;12057;52.042;6.830;2022-10-17T00:15:18;13.90;99.90
23755;DHT22;12057;52.042;6.830;2022-10-17T00:20:19;13.90;99.90
23755;DHT22;12057;52.042;6.830;2022-10-17T00:25:20;13.80;99.90
23755;DHT22;12057;52.042;6.830;2022-10-17T00:30:20;13.80;99.90
23755;DHT22;12057;52.042;6.830;2022-10-17T00:35:27;13.80;99.90
23755;DHT22;12057;52.042;6.830;2022-10-17T00:40:28;13.80;99.90
23755;DHT22;12057;52.042;6.830;2022-10-17T00:45:30;13.80;99.90
23755;DHT22;12057;52.042;6.830;2022-10-17T00:50:31;13.90;99.90
23755;DHT22;12057;52.042;6.830;2022-10-17T00:55:38;13.90;99.90
23755;DHT22;12057;52.042;6.830;2022-10-17T01:00:42;13.90;99.90
23755;DHT22;12057;52.042;6.830;2022-10-17T01:05:43;13.90;99.90
23755;DHT22;12057;52.042;6.830;2022-10-17T01:11:01;13.90;99.90
23755;DHT22;12057;52.042;6.830;2022-10-17T01:21:30;14.00;99.90
23755;DHT22;12057;52.042;6.830;2022-10-17T01:26:43;14.00;99.90
23755;DHT22;12057;52.042;6.830;2022-10-17T01:32:15;14.00;99.90
23755;DHT22;12057;52.042;6.830;2022-10-17T01:37:46;14.00;99.90
23755;DHT22;12057;52.042;6.830;2022-10-17T01:43:04;14.00;99.90
23755;DHT22;12057;52.042;6.830;2022-10-17T01:48:19;14.10;99.90
23755;DHT22;12057;52.042;6.830;2022-10-17T01:53:36;14.10;99.90
23755;DHT22;12057;52.042;6.830;2022-10-17T01:58:47;14.20;99.90
23755;DHT22;12057;52.042;6.830;2022-10-17T02:03:50;14.20;99.90
23755;DHT22;12057;52.042;6.830;2022-10-17T02:08:51;14.30;99.90
23755;DHT22;12057;52.042;6.830;2022-10-17T02:14:25;14.30;99.90
23755;DHT22;12057;52.042;6.830;2022-10-17T02:25:13;14.30;99.90
23755;DHT22;12057;52.042;6.830;2022-10-17T02:35:46;14.40;99.90
23755;DHT22;12057;52.042;6.830;2022-10-17T02:40:50;14.50;99.90
23755;DHT22;12057;52.042;6.830;2022-10-17T02:45:52;14.50;99.90
23755;DHT22;12057;52.042;6.830;2022-10-17T02:51:23;14.50;99.90
23755;DHT22;12057;52.042;6.830;2022-10-17T02:56:25;14.50;99.90
23755;DHT22;12057;52.042;6.830;2022-10-17T03:01:28;14.50;99.90
23755;DHT22;12057;52.042;6.830;2022-10-17T03:06:30;14.50;99.90
23755;DHT22;12057;52.042;6.830;2022-10-17T03:11:30;14.60;99.90
23755;DHT22;12057;52.042;6.830;2022-10-17T03:16:31;14.60;99.90
23755;DHT22;12057;52.042;6.830;2022-10-17T03:21:32;14.60;99.90
23755;DHT22;12057;52.042;6.830;2022-10-17T03:26:33;14.60;99.90
23755;DHT22;12057;52.042;6.830;2022-10-17T03:31:35;14.60;99.90
23755;DHT22;12057;52.042;6.830;2022-10-17T03:36:35;14.60;99.90
23755;DHT22;12057;52.042;6.830;2022-10-17T03:41:36;14.60;99.90
23755;DHT22;12057;52.042;6.830;2022-10-17T03:46:37;14.60;99.90
23755;DHT22;12057;52.042;6.830;2022-10-17T03:51:38;14.60;99.90
23755;DHT22;12057;52.042;6.830;2022-10-17T03:56:39;14.60;99.90
23755;DHT22;12057;52.042;6.830;2022-10-17T04:01:39;14.60;99.90
23755;DHT22;12057;52.042;6.830;2022-10-17T04:06:40;14.60;99.90
23755;DHT22;12057;52.042;6.830;2022-10-17T04:11:41;14.70;99.90
23755;DHT22;12057;52.042;6.830;2022-10-17T04:16:42;14.70;99.90
23755;DHT22;12057;52.042;6.830;2022-10-17T04:21:43;14.80;99.90
23755;DHT22;12057;52.042;6.830;2022-10-17T04:26:44;14.80;99.90
23755;DHT22;12057;52.042;6.830;2022-10-17T04:31:45;14.80;99.90
23755;DHT22;12057;52.042;6.830;2022-10-17T04:36:45;14.80;99.90
23755;DHT22;12057;52.042;6.830;2022-10-17T04:41:46;14.80;99.90
23755;DHT22;12057;52.042;6.830;2022-10-17T04:46:47;14.80;99.90
23755;DHT22;12057;52.042;6.830;2022-10-17T04:51:47;14.90;99.90
23755;DHT22;12057;52.042;6.830;2022-10-17T04:56:48;14.90;99.90
23755;DHT22;12057;52.042;6.830;2022-10-17T05:01:49;15.00;99.90
23755;DHT22;12057;52.042;6.830;2022-10-17T05:06:50;15.10;99.90
23755;DHT22;12057;52.042;6.830;2022-10-17T05:11:50;15.10;99.90
23755;DHT22;12057;52.042;6.830;2022-10-17T05:16:51;15.10;99.90
23755;DHT22;12057;52.042;6.830;2022-10-17T05:21:52;15.20;99.90
23755;DHT22;12057;52.042;6.830;2022-10-17T05:26:52;15.30;99.90
23755;DHT22;12057;52.042;6.830;2022-10-17T05:31:53;15.40;99.90
23755;DHT22;12057;52.042;6.830;2022-10-17T05:36:53;15.60;99.90
23755;DHT22;12057;52.042;6.830;2022-10-17T05:41:54;15.60;99.90
23755;DHT22;12057;52.042;6.830;2022-10-17T05:46:55;15.70;99.90
23755;DHT22;12057;52.042;6.830;2022-10-17T05:51:55;15.80;99.90
23755;DHT22;12057;52.042;6.830;2022-10-17T05:56:56;15.80;99.90
23755;DHT22;12057;52.042;6.830;2022-10-17T06:01:57;15.70;99.90
23755;DHT22;12057;52.042;6.830;2022-10-17T06:06:58;15.80;99.90
23755;DHT22;12057;52.042;6.830;2022-10-17T06:11:58;15.80;99.90
23755;DHT22;12057;52.042;6.830;2022-10-17T06:16:59;15.70;99.90
23755;DHT22;12057;52.042;6.830;2022-10-17T06:22:00;15.70;99.90
23755;DHT22;12057;52.042;6.830;2022-10-17T06:27:01;15.80;99.90
23755;DHT22;12057;52.042;6.830;2022-10-17T06:32:02;15.70;99.90
23755;DHT22;12057;52.042;6.830;2022-10-17T06:37:03;15.70;99.90
23755;DHT22;12057;52.042;6.830;2022-10-17T06:42:04;15.80;99.90
23755;DHT22;12057;52.042;6.830;2022-10-17T06:47:04;15.90;99.90
23755;DHT22;12057;52.042;6.830;2022-10-17T06:52:05;15.90;99.90
23755;DHT22;12057;52.042;6.830;2022-10-17T06:57:06;15.90;99.90
23755;DHT22;12057;52.042;6.830;2022-10-17T07:02:11;15.90;99.90
23755;DHT22;12057;52.042;6.830;2022-10-17T07:07:11;16.00;99.90
23755;DHT22;12057;52.042;6.830;2022-10-17T07:12:12;16.10;99.90
23755;DHT22;12057;52.042;6.830;2022-10-17T07:17:13;16.20;99.90
23755;DHT22;12057;52.042;6.830;2022-10-17T07:22:13;16.20;99.90
23755;DHT22;12057;52.042;6.830;2022-10-17T07:27:14;16.30;99.90
23755;DHT22;12057;52.042;6.830;2022-10-17T07:32:15;16.40;99.90
23755;DHT22;12057;52.042;6.830;2022-10-17T07:37:16;16.60;99.90
23755;DHT22;12057;52.042;6.830;2022-10-17T07:42:16;16.70;99.90
23755;DHT22;12057;52.042;6.830;2022-10-17T07:47:17;16.80;99.90
23755;DHT22;12057;52.042;6.830;2022-10-17T07:52:18;16.90;99.90
23755;DHT22;12057;52.042;6.830;2022-10-17T07:57:18;17.00;99.90
23755;DHT22;12057;52.042;6.830;2022-10-17T08:02:24;17.20;99.90
23755;DHT22;12057;52.042;6.830;2022-10-17T08:07:25;17.30;99.90
23755;DHT22;12057;52.042;6.830;2022-10-17T08:12:25;17.40;99.90
23755;DHT22;12057;52.042;6.830;2022-10-17T08:17:26;17.50;99.90
23755;DHT22;12057;52.042;6.830;2022-10-17T08:22:27;17.70;99.90
23755;DHT22;12057;52.042;6.830;2022-10-17T08:27:28;17.70;99.90
23755;DHT22;12057;52.042;6.830;2022-10-17T08:32:28;17.80;99.90
23755;DHT22;12057;52.042;6.830;2022-10-17T08:37:29;18.00;99.90
23755;DHT22;12057;52.042;6.830;2022-10-17T08:48:11;18.00;99.90
23755;DHT22;12057;52.042;6.830;2022-10-17T08:58:21;18.10;99.90
23755;DHT22;12057;52.042;6.830;2022-10-17T09:08:52;18.50;99.90
23755;DHT22;12057;52.042;6.830;2022-10-17T09:19:27;18.50;99.90
23755;DHT22;12057;52.042;6.830;2022-10-17T09:24:48;18.50;99.90
23755;DHT22;12057;52.042;6.830;2022-10-17T09:29:56;18.50;99.90
23755;DHT22;12057;52.042;6.830;2022-10-17T09:35:01;18.50;99.90
23755;DHT22;12057;52.042;6.830;2022-10-17T09:40:04;18.60;99.90
23755;DHT22;12057;52.042;6.830;2022-10-17T09:50:30;18.60;99.90
23755;DHT22;12057;52.042;6.830;2022-10-17T10:00:43;18.40;99.90
23755;DHT22;12057;52.042;6.830;2022-10-17T10:11:05;18.30;99.90
23755;DHT22;12057;52.042;6.830;2022-10-17T10:16:14;18.20;99.90
23755;DHT22;12057;52.042;6.830;2022-10-17T10:21:21;18.20;99.90
23755;DHT22;12057;52.042;6.830;2022-10-17T10:26:32;18.20;99.90
23755;DHT22;12057;52.042;6.830;2022-10-17T10:31:36;18.20;99.90
23755;DHT22;12057;52.042;6.830;2022-10-17T10:36:47;18.10;99.90
23755;DHT22;12057;52.042;6.830;2022-10-17T10:41:48;17.90;99.90
23755;DHT22;12057;52.042;6.830;2022-10-17T10:47:05;17.90;99.90
23755;DHT22;12057;52.042;6.830;2022-10-17T10:52:07;17.90;99.90
23755;DHT22;12057;52.042;6.830;2022-10-17T10:57:15;17.90;99.90
23755;DHT22;12057;52.042;6.830;2022-10-17T11:02:25;17.90;99.90
23755;DHT22;12057;52.042;6.830;2022-10-17T11:07:51;17.90;99.90
23755;DHT22;12057;52.042;6.830;2022-10-17T11:13:00;17.70;99.90
23755;DHT22;12057;52.042;6.830;2022-10-17T11:18:06;17.80;99.90
23755;DHT22;12057;52.042;6.830;2022-10-17T11:23:22;17.80;99.90
23755;DHT22;12057;52.042;6.830;2022-10-17T11:28:24;17.80;99.90
23755;DHT22;12057;52.042;6.830;2022-10-17T11:38:49;17.70;99.90
23755;DHT22;12057;52.042;6.830;2022-10-17T11:43:53;17.70;99.90
23755;DHT22;12057;52.042;6.830;2022-10-17T12:09:52;18.20;99.90
23755;DHT22;12057;52.042;6.830;2022-10-17T12:25:33;18.40;99.90
23755;DHT22;12057;52.042;6.830;2022-10-17T12:30:34;18.40;99.90
23755;DHT22;12057;52.042;6.830;2022-10-17T12:35:36;18.40;99.90
23755;DHT22;12057;52.042;6.830;2022-10-17T12:45:52;18.30;99.90
23755;DHT22;12057;52.042;6.830;2022-10-17T12:51:12;18.20;99.90
23755;DHT22;12057;52.042;6.830;2022-10-17T12:56:29;18.10;99.90
23755;DHT22;12057;52.042;6.830;2022-10-17T13:01:31;18.10;99.90
23755;DHT22;12057;52.042;6.830;2022-10-17T13:06:37;18.10;99.90
23755;DHT22;12057;52.042;6.830;2022-10-17T13:11:42;18.10;99.90
23755;DHT22;12057;52.042;6.830;2022-10-17T13:16:55;18.10;99.90
23755;DHT22;12057;52.042;6.830;2022-10-17T13:21:59;18.00;99.90
23755;DHT22;12057;52.042;6.830;2022-10-17T13:27:04;18.00;99.90
23755;DHT22;12057;52.042;6.830;2022-10-17T13:32:05;17.90;99.90
23755;DHT22;12057;52.042;6.830;2022-10-17T13:37:09;17.90;99.90
23755;DHT22;12057;52.042;6.830;2022-10-17T13:42:23;17.90;99.90
23755;DHT22;12057;52.042;6.830;2022-10-17T13:47:28;17.90;99.90
23755;DHT22;12057;52.042;6.830;2022-10-17T13:52:29;17.90;99.90
23755;DHT22;12057;52.042;6.830;2022-10-17T13:57:30;17.90;99.90
23755;DHT22;12057;52.042;6.830;2022-10-17T14:02:33;17.90;99.90
23755;DHT22;12057;52.042;6.830;2022-10-17T14:07:37;18.00;99.90
23755;DHT22;12057;52.042;6.830;2022-10-17T14:12:41;18.00;99.90
23755;DHT22;12057;52.042;6.830;2022-10-17T14:17:43;18.00;99.90
23755;DHT22;12057;52.042;6.830;2022-10-17T14:22:46;18.10;99.90
23755;DHT22;12057;52.042;6.830;2022-10-17T14:28:16;18.00;99.90
23755;DHT22;12057;52.042;6.830;2022-10-17T14:33:29;17.90;99.90
23755;DHT22;12057;52.042;6.830;2022-10-17T14:38:30;17.90;99.90
23755;DHT22;12057;52.042;6.830;2022-10-17T14:43:34;17.90;99.90
23755;DHT22;12057;52.042;6.830;2022-10-17T14:48:35;17.90;99.90
23755;DHT22;12057;52.042;6.830;2022-10-17T14:53:37;17.90;99.90
23755;DHT22;12057;52.042;6.830;2022-10-17T14:58:38;17.90;99.90
23755;DHT22;12057;52.042;6.830;2022-10-17T15:03:39;17.90;99.90
23755;DHT22;12057;52.042;6.830;2022-10-17T15:08:40;17.80;99.90
23755;DHT22;12057;52.042;6.830;2022-10-17T15:13:40;17.80;99.90
23755;DHT22;12057;52.042;6.830;2022-10-17T15:18:41;17.70;99.90
23755;DHT22;12057;52.042;6.830;2022-10-17T15:23:42;17.60;99.90
23755;DHT22;12057;52.042;6.830;2022-10-17T15:28:43;17.60;99.90
23755;DHT22;12057;52.042;6.830;2022-10-17T15:33:44;17.70;99.90
23755;DHT22;12057;52.042;6.830;2022-10-17T15:38:46;17.70;99.90
23755;DHT22;12057;52.042;6.830;2022-10-17T15:43:47;17.70;99.90
23755;DHT22;12057;52.042;6.830;2022-10-17T15:48:52;17.60;99.90
23755;DHT22;12057;52.042;6.830;2022-10-17T15:53:53;17.60;99.90
23755;DHT22;12057;52.042;6.830;2022-10-17T15:58:54;17.50;99.90
23755;DHT22;12057;52.042;6.830;2022-10-17T16:03:58;17.60;99.90
23755;DHT22;12057;52.042;6.830;2022-10-17T16:08:58;17.50;99.90
23755;DHT22;12057;52.042;6.830;2022-10-17T16:14:02;17.50;99.90
23755;DHT22;12057;52.042;6.830;2022-10-17T16:19:03;17.40;99.90
23755;DHT22;12057;52.042;6.830;2022-10-17T16:24:04;17.40;99.90
23755;DHT22;12057;52.042;6.830;2022-10-17T16:29:05;17.30;99.90
23755;DHT22;12057;52.042;6.830;2022-10-17T16:34:07;17.20;99.90
23755;DHT22;12057;52.042;6.830;2022-10-17T16:39:08;17.20;99.90
23755;DHT22;12057;52.042;6.830;2022-10-17T16:44:10;17.10;99.90
23755;DHT22;12057;52.042;6.830;2022-10-17T16:49:13;17.00;99.90
23755;DHT22;12057;52.042;6.830;2022-10-17T16:54:16;17.00;99.90
23755;DHT22;12057;52.042;6.830;2022-10-17T16:59:20;16.90;99.90
23755;DHT22;12057;52.042;6.830;2022-10-17T17:04:21;16.90;99.90
23755;DHT22;12057;52.042;6.830;2022-10-17T17:09:22;16.80;99.90
23755;DHT22;12057;52.042;6.830;2022-10-17T17:14:22;16.70;99.90
23755;DHT22;12057;52.042;6.830;2022-10-17T17:19:23;16.70;99.90
23755;DHT22;12057;52.042;6.830;2022-10-17T17:24:24;16.70;99.90
23755;DHT22;12057;52.042;6.830;2022-10-17T17:29:25;16.70;99.90
23755;DHT22;12057;52.042;6.830;2022-10-17T17:34:26;16.60;99.90
23755;DHT22;12057;52.042;6.830;2022-10-17T17:39:27;16.60;99.90
23755;DHT22;12057;52.042;6.830;2022-10-17T17:44:27;16.50;99.90
23755;DHT22;12057;52.042;6.830;2022-10-17T17:49:28;16.50;99.90
23755;DHT22;12057;52.042;6.830;2022-10-17T17:54:29;16.40;99.90
23755;DHT22;12057;52.042;6.830;2022-10-17T17:59:29;16.40;99.90
23755;DHT22;12057;52.042;6.830;2022-10-17T18:04:30;16.40;99.90
23755;DHT22;12057;52.042;6.830;2022-10-17T18:09:31;16.30;99.90
23755;DHT22;12057;52.042;6.830;2022-10-17T18:14:32;16.20;99.90
23755;DHT22;12057;52.042;6.830;2022-10-17T18:19:33;16.20;99.90
23755;DHT22;12057;52.042;6.830;2022-10-17T18:24:33;16.10;99.90
23755;DHT22;12057;52.042;6.830;2022-10-17T18:29:35;16.00;99.90
23755;DHT22;12057;52.042;6.830;2022-10-17T18:34:35;16.00;99.90
23755;DHT22;12057;52.042;6.830;2022-10-17T18:39:36;16.00;99.90
23755;DHT22;12057;52.042;6.830;2022-10-17T18:44:37;15.90;99.90
23755;DHT22;12057;52.042;6.830;2022-10-17T18:49:37;15.90;99.90
23755;DHT22;12057;52.042;6.830;2022-10-17T18:54:38;15.90;99.90
23755;DHT22;12057;52.042;6.830;2022-10-17T18:59:39;15.80;99.90
23755;DHT22;12057;52.042;6.830;2022-10-17T19:04:40;15.90;99.90
23755;DHT22;12057;52.042;6.830;2022-10-17T19:09:40;15.80;99.90
23755;DHT22;12057;52.042;6.830;2022-10-17T19:14:41;15.90;99.90
23755;DHT22;12057;52.042;6.830;2022-10-17T19:19:42;15.90;99.90
23755;DHT22;12057;52.042;6.830;2022-10-17T19:24:42;15.90;99.90
23755;DHT22;12057;52.042;6.830;2022-10-17T19:29:43;15.90;99.90
23755;DHT22;12057;52.042;6.830;2022-10-17T19:34:44;15.90;99.90
23755;DHT22;12057;52.042;6.830;2022-10-17T19:39:44;15.90;99.90
23755;DHT22;12057;52.042;6.830;2022-10-17T19:44:45;15.90;99.90
23755;DHT22;12057;52.042;6.830;2022-10-17T19:49:46;15.90;99.90
23755;DHT22;12057;52.042;6.830;2022-10-17T19:54:47;15.90;99.90
23755;DHT22;12057;52.042;6.830;2022-10-17T19:59:47;16.00;99.90
23755;DHT22;12057;52.042;6.830;2022-10-17T20:04:48;16.00;99.90
23755;DHT22;12057;52.042;6.830;2022-10-17T20:09:49;15.90;99.90
23755;DHT22;12057;52.042;6.830;2022-10-17T20:14:49;15.90;99.90
23755;DHT22;12057;52.042;6.830;2022-10-17T20:19:50;15.90;99.90
23755;DHT22;12057;52.042;6.830;2022-10-17T20:24:51;15.80;99.90
23755;DHT22;12057;52.042;6.830;2022-10-17T20:29:51;15.80;99.90
23755;DHT22;12057;52.042;6.830;2022-10-17T20:34:52;15.70;99.90
23755;DHT22;12057;52.042;6.830;2022-10-17T20:39:53;15.70;99.90
23755;DHT22;12057;52.042;6.830;2022-10-17T20:44:54;15.70;99.90
23755;DHT22;12057;52.042;6.830;2022-10-17T20:49:55;15.70;99.90
23755;DHT22;12057;52.042;6.830;2022-10-17T20:54:55;15.70;99.90
23755;DHT22;12057;52.042;6.830;2022-10-17T20:59:56;15.60;99.90
23755;DHT22;12057;52.042;6.830;2022-10-17T21:04:57;15.60;99.90
23755;DHT22;12057;52.042;6.830;2022-10-17T21:09:57;15.60;99.90
23755;DHT22;12057;52.042;6.830;2022-10-17T21:14:58;15.60;99.90
23755;DHT22;12057;52.042;6.830;2022-10-17T21:19:59;15.60;99.90
23755;DHT22;12057;52.042;6.830;2022-10-17T21:25:00;15.60;99.90
23755;DHT22;12057;52.042;6.830;2022-10-17T21:30:00;15.50;99.90
23755;DHT22;12057;52.042;6.830;2022-10-17T21:35:01;15.50;99.90
23755;DHT22;12057;52.042;6.830;2022-10-17T21:40:02;15.50;99.90
23755;DHT22;12057;52.042;6.830;2022-10-17T21:45:03;15.40;99.90
23755;DHT22;12057;52.042;6.830;2022-10-17T21:50:04;15.40;99.90
23755;DHT22;12057;52.042;6.830;2022-10-17T21:55:05;15.30;99.90
23755;DHT22;12057;52.042;6.830;2022-10-17T22:00:06;15.30;99.90
23755;DHT22;12057;52.042;6.830;2022-10-17T22:05:07;15.30;99.90
23755;DHT22;12057;52.042;6.830;2022-10-17T22:10:08;15.20;99.90
23755;DHT22;12057;52.042;6.830;2022-10-17T22:15:09;15.20;99.90
23755;DHT22;12057;52.042;6.830;2022-10-17T22:20:10;15.20;99.90
23755;DHT22;12057;52.042;6.830;2022-10-17T22:25:10;15.20;99.90
23755;DHT22;12057;52.042;6.830;2022-10-17T22:30:11;15.10;99.90
23755;DHT22;12057;52.042;6.830;2022-10-17T22:35:17;15.20;99.90
23755;DHT22;12057;52.042;6.830;2022-10-17T22:40:25;15.10;99.90
23755;DHT22;12057;52.042;6.830;2022-10-17T22:45:41;15.10;99.90
23755;DHT22;12057;52.042;6.830;2022-10-17T22:50:47;15.10;99.90
23755;DHT22;12057;52.042;6.830;2022-10-17T22:56:06;15.10;99.90
23755;DHT22;12057;52.042;6.830;2022-10-17T23:01:14;15.10;99.90
23755;DHT22;12057;52.042;6.830;2022-10-17T23:06:23;15.10;99.90
23755;DHT22;12057;52.042;6.830;2022-10-17T23:11:31;15.10;99.90
23755;DHT22;12057;52.042;6.830;2022-10-17T23:16:35;15.10;99.90
23755;DHT22;12057;52.042;6.830;2022-10-17T23:21:40;15.20;99.90
23755;DHT22;12057;52.042;6.830;2022-10-17T23:26:51;15.20;99.90
23755;DHT22;12057;52.042;6.830;2022-10-17T23:31:55;15.20;99.90
23755;DHT22;12057;52.042;6.830;2022-10-17T23:36:59;15.30;99.90
23755;DHT22;12057;52.042;6.830;2022-10-17T23:42:07;15.30;99.90
23755;DHT22;12057;52.042;6.830;2022-10-17T23:47:26;15.30;99.90
23755;DHT22;12057;52.042;6.830;2022-10-17T23:52:36;15.30;99.90
23755;DHT22;12057;52.042;6.830;2022-10-17T23:57:50;15.40;99.90
